首页
METAR-TAF:

METAR-TAF

机场 :

Creston, 艾奥瓦州, 美国

纬度: 41-01N, 经度: 094-22W, 海拔: 394米

当前天气观测

该预报发布于14分钟前的01:35 UTC
风速7节,风向西转西北
温度 -1°C
湿度 100%
气压 1017 hPa
能見度: 16.1公里
多云层高于6000英尺

METAR: KCSQ 140135Z AUTO 30007KT 10SM BKN060 M01/M01 A3003 RMK AO2

时间: 19:49 (01:49 UTC)


TAF: 丢失

超过4000个机场的气象观测和天气预报(METAR&TAF报告)。

可查询的气象台以黄色和红色小点在地图上表示。

将鼠标移到小点上方,可查看气象台名称。

然后点击查看天气观测和预报。

如需切换地图:点击带黑十字的绿色按钮放大地图;点击带横线的绿色按钮缩小地图;或者点击绿色箭头查看邻近地区的地图。


METAR-TAF: